createdAt,value
2023-02-17T00:01:26.071Z,98474.72
2023-02-17T00:03:54.890Z,98451.34
2023-02-17T00:06:26.121Z,98469.88
2023-02-17T00:08:54.944Z,98435.09
2023-02-17T00:11:23.028Z,98468.06
2023-02-17T00:13:51.209Z,98423.59
2023-02-17T00:16:21.341Z,98441.84
2023-02-17T00:18:55.085Z,98468.94
2023-02-17T00:21:26.397Z,98465.44
2023-02-17T00:23:55.247Z,98486.91
2023-02-17T00:26:23.713Z,98462.75
2023-02-17T00:28:52.188Z,98470.53
2023-02-17T00:31:22.771Z,98469.72
2023-02-17T00:33:56.080Z,98467.88
2023-02-17T00:36:24.716Z,98469.72
2023-02-17T00:38:54.867Z,98041.09
2023-02-17T00:41:23.995Z,98473.44
2023-02-17T00:43:52.209Z,98438.19
2023-02-17T00:46:20.416Z,98484.13
2023-02-17T00:48:49.814Z,98489.69
2023-02-17T00:51:20.466Z,98478.06
2023-02-17T00:53:48.810Z,98486.91
2023-02-17T00:56:17.154Z,98483.72
2023-02-17T00:58:46.295Z,98479.38
2023-02-17T01:01:14.844Z,98476.69
2023-02-17T01:03:43.471Z,98477.25
2023-02-17T01:06:20.010Z,98462.59
2023-02-17T01:08:49.656Z,98461.78
2023-02-17T01:11:22.897Z,98337.44
2023-02-17T01:13:51.096Z,98468.81
2023-02-17T01:16:22.264Z,98464.53
2023-02-17T01:18:50.444Z,98462.91
2023-02-17T01:21:19.761Z,98457.59
2023-02-17T01:23:50.174Z,98462.75
2023-02-17T01:26:20.037Z,98438.31
2023-02-17T01:28:48.408Z,98465.41
2023-02-17T01:31:17.033Z,98460.28
2023-02-17T01:33:45.313Z,98454.25
2023-02-17T01:36:15.705Z,98423.00
2023-02-17T01:38:44.136Z,98452.63
2023-02-17T01:41:15.009Z,98450.81
2023-02-17T01:43:43.554Z,98453.41
2023-02-17T01:46:11.689Z,98451.75
2023-02-17T01:48:45.835Z,98452.56
2023-02-17T01:51:20.023Z,98450.00
2023-02-17T01:53:53.651Z,98449.16
2023-02-17T01:56:24.995Z,98445.56
2023-02-17T01:58:57.866Z,98435.34
2023-02-17T02:01:26.005Z,98378.84
2023-02-17T02:03:54.623Z,98433.09
2023-02-17T02:06:27.043Z,98425.28
2023-02-17T02:09:00.585Z,98428.50
2023-02-17T02:11:30.342Z,98428.38
2023-02-17T02:14:00.196Z,98421.31
2023-02-17T02:16:37.446Z,98428.44
2023-02-17T02:19:22.505Z,98423.34
2023-02-17T02:22:18.790Z,98408.44
2023-02-17T02:25:02.887Z,98359.91
2023-02-17T02:27:51.858Z,98415.84
2023-02-17T02:30:39.773Z,98251.38
2023-02-17T02:33:17.968Z,98410.38
2023-02-17T02:35:54.250Z,98405.13
2023-02-17T02:38:29.540Z,98402.56
2023-02-17T02:41:04.626Z,98374.72
2023-02-17T02:43:33.631Z,98405.16
2023-02-17T02:46:01.816Z,98403.69
2023-02-17T02:48:31.871Z,98411.28
2023-02-17T02:51:12.710Z,98375.50
2023-02-17T02:54:08.684Z,98416.50
2023-02-17T02:56:48.498Z,98410.50
2023-02-17T02:59:28.234Z,98416.38
2023-02-17T03:02:03.615Z,98375.47
2023-02-17T03:04:38.342Z,98418.03
2023-02-17T03:07:10.442Z,98419.81
2023-02-17T03:09:39.622Z,98409.47
2023-02-17T03:12:08.392Z,98407.72
2023-02-17T03:14:39.500Z,98386.84
2023-02-17T03:17:07.575Z,98403.41
2023-02-17T03:19:37.326Z,98401.81
2023-02-17T03:22:11.265Z,98373.25
2023-02-17T03:24:39.459Z,98401.88
2023-02-17T03:27:07.661Z,98375.13
2023-02-17T03:29:35.921Z,98402.75
2023-02-17T03:32:04.281Z,98403.41
2023-02-17T03:34:32.739Z,98406.84
2023-02-17T03:37:02.380Z,98381.66
2023-02-17T03:39:31.658Z,98409.34
2023-02-17T03:41:59.711Z,98417.00
2023-02-17T03:44:27.950Z,98413.44
2023-02-17T03:46:56.085Z,98417.75
2023-02-17T03:49:24.305Z,98415.25
2023-02-17T03:51:52.540Z,98419.59
2023-02-17T03:54:22.076Z,98317.97
2023-02-17T03:56:50.301Z,98367.63
2023-02-17T03:59:18.444Z,98412.03
2023-02-17T04:01:46.649Z,98236.31
2023-02-17T04:04:14.878Z,98391.16
2023-02-17T04:06:43.382Z,98402.78
2023-02-17T04:09:12.025Z,98307.88
2023-02-17T04:11:41.637Z,98401.88
2023-02-17T04:14:09.890Z,98412.31
2023-02-17T04:16:39.437Z,98405.41
2023-02-17T04:19:07.796Z,98408.81
2023-02-17T04:21:36.373Z,98353.84
2023-02-17T04:24:05.262Z,98348.69
2023-02-17T04:26:33.621Z,98393.16
2023-02-17T04:29:05.701Z,98411.38
2023-02-17T04:31:34.082Z,98412.41
2023-02-17T04:34:02.373Z,98406.25
2023-02-17T04:36:30.706Z,98404.38
2023-02-17T04:38:58.913Z,98382.63
2023-02-17T04:41:27.047Z,98400.84
2023-02-17T04:43:57.112Z,98398.25
2023-02-17T04:46:27.467Z,98395.72
2023-02-17T04:48:55.690Z,98401.84
2023-02-17T04:51:23.888Z,98403.56
2023-02-17T04:53:53.037Z,98406.19
2023-02-17T04:56:21.521Z,98399.19
2023-02-17T04:58:49.650Z,98400.09
2023-02-17T05:01:17.831Z,98400.94
2023-02-17T05:03:47.466Z,98396.63
2023-02-17T05:06:15.676Z,98397.50
2023-02-17T05:08:43.801Z,98396.84
2023-02-17T05:11:11.930Z,98391.44
2023-02-17T05:13:40.089Z,98387.00
2023-02-17T05:16:08.763Z,98369.28
2023-02-17T05:18:37.188Z,98390.34
2023-02-17T05:21:07.363Z,98383.38
2023-02-17T05:23:41.375Z,98385.81
2023-02-17T05:26:09.913Z,98384.97
2023-02-17T05:28:38.626Z,98391.88
2023-02-17T05:31:07.014Z,98391.69
2023-02-17T05:33:35.579Z,98365.69
2023-02-17T05:36:05.609Z,98395.09
2023-02-17T05:38:35.861Z,98383.81
2023-02-17T05:41:04.006Z,98343.06
2023-02-17T05:43:32.679Z,98389.19
2023-02-17T05:46:03.873Z,98393.41
2023-02-17T05:48:32.596Z,98395.75
2023-02-17T05:51:00.774Z,98389.69
2023-02-17T05:53:29.309Z,98390.50
2023-02-17T05:55:59.236Z,98364.47
2023-02-17T05:58:27.592Z,98372.56
2023-02-17T06:00:55.702Z,98391.31
2023-02-17T06:03:23.821Z,98354.81
2023-02-17T06:05:51.961Z,98386.41
2023-02-17T06:08:20.141Z,98386.06
2023-02-17T06:10:48.330Z,98307.34
2023-02-17T06:13:17.914Z,98395.16
2023-02-17T06:15:46.766Z,98379.41
2023-02-17T06:18:16.631Z,98401.94
2023-02-17T06:20:44.918Z,98396.75
2023-02-17T06:23:13.091Z,98381.19
2023-02-17T06:25:41.284Z,98400.34
2023-02-17T06:28:09.413Z,98381.13
2023-02-17T06:30:38.963Z,98411.63
2023-02-17T06:33:07.049Z,98366.50
2023-02-17T06:35:35.242Z,98398.75
2023-02-17T06:38:03.453Z,98398.09
2023-02-17T06:40:31.619Z,98346.81
2023-02-17T06:42:59.774Z,98402.78
2023-02-17T06:45:27.903Z,98348.13
2023-02-17T06:47:57.442Z,98397.13
2023-02-17T06:50:25.677Z,98400.72
2023-02-17T06:52:53.801Z,98400.06
2023-02-17T06:55:21.920Z,98398.34
2023-02-17T06:57:50.098Z,98406.25
2023-02-17T07:00:18.846Z,98406.41
2023-02-17T07:02:47.036Z,98315.28
2023-02-17T07:05:16.768Z,98398.97
2023-02-17T07:07:44.856Z,98363.44
2023-02-17T07:10:13.846Z,98403.38
2023-02-17T07:12:42.072Z,98399.94
2023-02-17T07:15:12.520Z,98403.56
2023-02-17T07:17:40.706Z,98403.78
2023-02-17T07:20:10.086Z,98405.72
2023-02-17T07:22:39.967Z,98363.34
2023-02-17T07:25:08.770Z,98394.13
2023-02-17T07:27:37.503Z,98407.25
2023-02-17T07:30:06.845Z,98269.19
2023-02-17T07:32:35.682Z,98391.97
2023-02-17T07:35:03.898Z,98392.97
2023-02-17T07:37:32.006Z,98402.59
2023-02-17T07:40:01.517Z,98379.25
2023-02-17T07:42:30.278Z,98397.56
2023-02-17T07:44:58.349Z,98401.06
2023-02-17T07:47:26.471Z,98406.31
2023-02-17T07:49:54.616Z,98379.47
2023-02-17T07:52:22.909Z,98395.16
2023-02-17T07:54:51.061Z,98389.16
2023-02-17T07:57:20.634Z,98390.94
2023-02-17T07:59:48.782Z,98389.22
2023-02-17T08:02:17.022Z,98387.56
2023-02-17T08:04:45.238Z,98384.19
2023-02-17T08:07:13.369Z,98378.19
2023-02-17T08:09:58.848Z,98374.72
2023-02-17T08:12:45.916Z,98382.56
2023-02-17T08:15:14.559Z,98296.63
2023-02-17T08:17:43.212Z,98309.69
2023-02-17T08:20:13.536Z,98381.75
2023-02-17T08:22:41.596Z,98381.72
2023-02-17T08:25:10.167Z,98392.13
2023-02-17T08:27:39.723Z,98362.59
2023-02-17T08:30:09.284Z,98383.44
2023-02-17T08:32:37.439Z,98379.03
2023-02-17T08:35:06.736Z,98346.91
2023-02-17T08:37:34.851Z,98368.56
2023-02-17T08:40:03.200Z,98368.53
2023-02-17T08:42:33.638Z,98371.97
2023-02-17T08:45:03.272Z,98361.47
2023-02-17T08:47:31.364Z,98348.41
2023-02-17T08:49:59.527Z,98340.53
2023-02-17T08:52:27.771Z,98351.66
2023-02-17T08:54:55.846Z,98358.50
2023-02-17T08:57:24.647Z,98363.63
2023-02-17T08:59:52.837Z,98362.63
2023-02-17T09:02:22.369Z,98364.34
2023-02-17T09:04:50.531Z,98366.78
2023-02-17T09:07:18.741Z,98350.84
2023-02-17T09:09:46.926Z,98350.56
2023-02-17T09:12:15.134Z,98350.22
2023-02-17T09:14:43.554Z,98350.13
2023-02-17T09:17:11.864Z,98250.41
2023-02-17T09:19:41.788Z,98313.69
2023-02-17T09:22:13.602Z,98342.44
2023-02-17T09:24:46.337Z,98329.53
2023-02-17T09:27:14.982Z,98334.75
2023-02-17T09:29:43.060Z,98339.03
2023-02-17T09:32:11.545Z,98335.47
2023-02-17T09:34:42.732Z,98330.78
2023-02-17T09:37:12.579Z,98330.56
2023-02-17T09:39:40.794Z,98297.38
2023-02-17T09:42:17.909Z,98329.25
2023-02-17T09:44:49.844Z,98326.38
2023-02-17T09:47:21.562Z,98305.97
2023-02-17T09:49:56.492Z,98322.03
2023-02-17T09:52:31.807Z,98268.88
2023-02-17T09:55:05.361Z,98268.75
2023-02-17T09:57:37.863Z,98301.38
2023-02-17T10:00:11.780Z,98310.59
2023-02-17T10:02:48.357Z,98306.72
2023-02-17T10:05:21.622Z,98282.47
2023-02-17T10:07:54.683Z,98298.44
2023-02-17T10:10:27.483Z,98299.72
2023-02-17T10:12:59.341Z,98307.31
2023-02-17T10:15:31.209Z,98301.97
2023-02-17T10:18:06.116Z,98299.19
2023-02-17T10:20:41.245Z,98300.78
2023-02-17T10:23:20.225Z,98301.28
2023-02-17T10:26:07.501Z,98223.13
2023-02-17T10:28:50.189Z,98295.16
2023-02-17T10:31:27.501Z,98282.38
2023-02-17T10:34:04.204Z,98288.84
2023-02-17T10:36:45.357Z,98276.34
2023-02-17T10:39:16.535Z,98273.78
2023-02-17T10:41:49.450Z,98268.78
2023-02-17T10:44:22.598Z,98245.56
2023-02-17T10:46:52.124Z,98259.38
2023-02-17T10:49:27.951Z,98255.81
2023-02-17T10:52:02.228Z,98251.22
2023-02-17T10:54:37.218Z,98206.78
2023-02-17T10:57:11.232Z,98249.69
2023-02-17T10:59:42.421Z,98253.22
2023-02-17T11:02:20.803Z,98224.31
2023-02-17T11:04:51.691Z,98237.66
2023-02-17T11:07:28.384Z,98230.44
2023-02-17T11:10:03.204Z,98212.00
2023-02-17T11:12:40.178Z,98223.09
2023-02-17T11:15:18.700Z,98224.06
2023-02-17T11:17:47.555Z,98221.25
2023-02-17T11:20:34.797Z,98223.41
2023-02-17T11:23:25.358Z,98223.75
2023-02-17T11:25:59.303Z,98209.31
2023-02-17T11:28:29.096Z,98207.41
2023-02-17T11:30:58.826Z,98203.88
2023-02-17T11:33:32.722Z,98205.56
2023-02-17T11:36:01.917Z,98175.91
2023-02-17T11:38:42.456Z,98195.06
2023-02-17T11:41:11.246Z,98194.84
2023-02-17T11:43:40.202Z,98189.19
2023-02-17T11:46:19.053Z,98185.31
2023-02-17T11:49:40.652Z,98183.44
2023-02-17T11:52:22.476Z,98182.31
2023-02-17T11:55:09.169Z,98149.22
2023-02-17T11:57:42.791Z,98150.69
2023-02-17T12:00:17.797Z,98173.44
2023-02-17T12:03:29.021Z,98146.47
2023-02-17T12:06:08.154Z,98152.25
2023-02-17T12:08:49.303Z,98157.72
2023-02-17T12:11:28.271Z,98136.06
2023-02-17T12:14:07.941Z,98154.16
2023-02-17T12:16:46.388Z,98150.91
2023-02-17T12:19:32.696Z,98054.47
2023-02-17T12:22:14.663Z,98154.09
2023-02-17T12:25:03.511Z,98133.06
2023-02-17T12:27:50.012Z,98119.00
2023-02-17T12:30:29.407Z,98133.78
2023-02-17T12:33:20.637Z,98130.25
2023-02-17T12:35:53.186Z,98127.66
2023-02-17T12:38:27.077Z,98129.44
2023-02-17T12:40:59.713Z,98122.34
2023-02-17T12:43:37.199Z,98083.25
2023-02-17T12:46:09.351Z,98106.75
2023-02-17T12:48:41.221Z,98103.72
2023-02-17T12:51:13.569Z,98104.09
2023-02-17T12:53:48.516Z,98098.06
2023-02-17T12:56:44.487Z,98108.56
2023-02-17T12:59:17.505Z,98101.47
2023-02-17T13:01:54.214Z,98092.94
2023-02-17T13:04:26.349Z,98096.25
2023-02-17T13:07:02.648Z,98089.38
2023-02-17T13:09:36.337Z,98082.25
2023-02-17T13:12:33.767Z,98093.69
2023-02-17T13:15:06.185Z,98082.50
2023-02-17T13:17:38.603Z,98075.56
2023-02-17T13:20:23.849Z,98080.41
2023-02-17T13:22:52.228Z,98076.66
2023-02-17T13:25:33.854Z,98080.22
2023-02-17T13:28:04.880Z,98048.91
2023-02-17T13:30:41.064Z,98041.59
2023-02-17T13:33:28.184Z,98081.06
2023-02-17T13:35:56.379Z,98070.50
2023-02-17T13:38:29.170Z,98074.44
2023-02-17T13:41:01.813Z,98081.25
2023-02-17T13:43:31.910Z,98074.06
2023-02-17T13:46:04.462Z,98039.78
2023-02-17T13:48:34.896Z,98066.44
2023-02-17T13:51:04.438Z,98073.50
2023-02-17T13:53:36.672Z,98060.41
2023-02-17T13:56:08.401Z,97961.84
2023-02-17T13:58:38.799Z,98061.09
2023-02-17T14:01:15.419Z,98057.97
2023-02-17T14:03:47.538Z,98069.47
2023-02-17T14:06:27.837Z,98079.53
2023-02-17T14:08:56.652Z,98072.72
2023-02-17T14:11:27.004Z,98072.75
2023-02-17T14:13:57.187Z,98067.47
2023-02-17T14:16:32.005Z,98060.59
2023-02-17T14:19:05.601Z,98039.34
2023-02-17T14:21:34.285Z,98060.22
2023-02-17T14:24:02.804Z,98022.34
2023-02-17T14:26:36.824Z,98063.03
2023-02-17T14:29:06.869Z,98061.69
2023-02-17T14:31:41.222Z,98038.53
2023-02-17T14:34:15.940Z,98064.47
2023-02-17T14:36:44.182Z,98019.53
2023-02-17T14:39:15.809Z,98042.22
2023-02-17T14:41:44.910Z,97976.78
2023-02-17T14:44:13.069Z,98050.34
2023-02-17T14:46:42.659Z,98042.75
2023-02-17T14:49:10.794Z,97931.16
2023-02-17T14:51:39.680Z,98046.84
2023-02-17T14:54:15.162Z,98043.63
2023-02-17T14:56:47.808Z,97991.94
2023-02-17T14:59:16.017Z,98017.91
2023-02-17T15:01:45.608Z,98030.59
2023-02-17T15:04:13.766Z,98026.56
2023-02-17T15:06:44.312Z,98043.03
2023-02-17T15:09:14.859Z,98048.75
2023-02-17T15:11:45.808Z,97999.06
2023-02-17T15:14:16.752Z,98038.16
2023-02-17T15:16:46.907Z,98027.06
2023-02-17T15:19:18.048Z,97999.63
2023-02-17T15:21:49.188Z,98028.00
2023-02-17T15:24:20.193Z,98026.22
2023-02-17T15:26:48.546Z,98017.00
2023-02-17T15:29:18.145Z,97924.50
2023-02-17T15:31:48.496Z,98023.00
2023-02-17T15:34:19.769Z,98025.84
2023-02-17T15:36:48.590Z,98024.88
2023-02-17T15:39:18.677Z,98022.50
2023-02-17T15:41:48.576Z,98027.09
2023-02-17T15:44:19.299Z,98032.56
2023-02-17T15:46:51.153Z,98026.69
2023-02-17T15:49:19.369Z,98023.94
2023-02-17T15:51:47.543Z,98023.66
2023-02-17T15:54:19.351Z,98024.34
2023-02-17T15:56:50.859Z,98030.91
2023-02-17T15:59:25.909Z,97877.75
2023-02-17T16:02:01.377Z,98027.09
2023-02-17T16:04:30.104Z,98024.53
2023-02-17T16:06:58.349Z,98024.63
2023-02-17T16:09:26.513Z,97960.94
2023-02-17T16:11:57.512Z,98020.47
2023-02-17T16:14:29.586Z,98022.09
2023-02-17T16:16:59.455Z,98034.13
2023-02-17T16:19:28.557Z,98019.97
2023-02-17T16:21:57.288Z,97845.28
2023-02-17T16:24:25.999Z,97923.22
2023-02-17T16:26:56.567Z,97975.84
2023-02-17T16:29:24.828Z,98003.47
2023-02-17T16:31:53.214Z,98012.06
2023-02-17T16:34:24.660Z,98010.44
2023-02-17T16:36:55.144Z,97942.03
2023-02-17T16:39:23.819Z,97990.47
2023-02-17T16:41:52.137Z,98009.63
2023-02-17T16:44:22.497Z,98011.44
2023-02-17T16:46:52.118Z,97975.22
2023-02-17T16:49:25.960Z,98021.88
2023-02-17T16:51:54.144Z,98008.38
2023-02-17T16:54:22.387Z,97974.09
2023-02-17T16:56:52.118Z,98006.97
2023-02-17T16:59:24.299Z,98029.59
2023-02-17T17:01:54.436Z,98015.91
2023-02-17T17:04:24.656Z,98041.63
2023-02-17T17:06:53.924Z,97906.38
2023-02-17T17:09:24.583Z,97933.09
2023-02-17T17:11:52.721Z,98009.25
2023-02-17T17:14:21.930Z,98007.63
2023-02-17T17:16:57.412Z,98017.28
2023-02-17T17:19:27.085Z,98016.47
2023-02-17T17:21:55.243Z,97995.81
2023-02-17T17:24:23.366Z,98035.59
2023-02-17T17:26:51.688Z,98029.53
2023-02-17T17:29:20.699Z,98032.16
2023-02-17T17:31:49.236Z,98003.66
2023-02-17T17:34:17.416Z,98021.19
2023-02-17T17:36:49.067Z,98011.69
2023-02-17T17:39:20.030Z,98029.91
2023-02-17T17:41:48.550Z,98019.75
2023-02-17T17:44:16.652Z,98023.44
2023-02-17T17:46:45.520Z,98033.78
2023-02-17T17:49:18.036Z,98006.28
2023-02-17T17:51:47.562Z,98031.34
2023-02-17T17:54:15.711Z,98029.72
2023-02-17T17:56:44.168Z,98045.34
2023-02-17T17:59:13.516Z,98025.50
2023-02-17T18:01:43.865Z,98046.34
2023-02-17T18:04:13.350Z,98053.38
2023-02-17T18:06:44.697Z,98060.31
2023-02-17T18:09:31.142Z,98025.84
2023-02-17T18:12:03.972Z,98053.59
2023-02-17T18:14:32.751Z,97983.06
2023-02-17T18:17:01.147Z,98068.50
2023-02-17T18:19:31.816Z,98058.16
2023-02-17T18:22:00.115Z,98061.44
2023-02-17T18:24:29.720Z,98062.31
2023-02-17T18:26:57.834Z,98051.19
2023-02-17T18:29:25.970Z,98062.31
2023-02-17T18:31:54.297Z,98086.00
2023-02-17T18:34:22.567Z,98080.06
2023-02-17T18:36:50.824Z,98053.47
2023-02-17T18:39:19.015Z,98082.06
2023-02-17T18:41:48.588Z,98078.72
2023-02-17T18:44:16.996Z,98087.34
2023-02-17T18:46:45.160Z,98038.13
2023-02-17T18:49:13.359Z,98074.59
2023-02-17T18:51:41.666Z,98081.69
2023-02-17T18:54:11.101Z,98073.09
2023-02-17T18:56:39.303Z,98080.06
2023-02-17T18:59:08.869Z,98074.00
2023-02-17T19:01:40.993Z,98078.34
2023-02-17T19:04:09.818Z,97947.09
2023-02-17T19:06:38.008Z,98070.63
2023-02-17T19:09:07.046Z,98068.03
2023-02-17T19:11:35.409Z,98042.59
2023-02-17T19:14:03.879Z,98008.84
2023-02-17T19:16:34.021Z,98056.34
2023-02-17T19:19:03.028Z,98051.44
2023-02-17T19:21:31.560Z,97977.59
2023-02-17T19:23:59.801Z,97915.50
2023-02-17T19:26:27.937Z,98034.69
2023-02-17T19:28:56.370Z,98057.25
2023-02-17T19:31:25.083Z,98056.41
2023-02-17T19:33:54.694Z,98032.16
2023-02-17T19:36:23.746Z,98018.41
2023-02-17T19:38:52.256Z,98045.13
2023-02-17T19:41:20.984Z,98050.28
2023-02-17T19:43:49.367Z,97868.94
2023-02-17T19:46:21.175Z,98045.00
2023-02-17T19:48:49.555Z,98046.78
2023-02-17T19:51:19.195Z,97864.47
2023-02-17T19:53:47.407Z,98028.59
2023-02-17T19:56:17.546Z,98031.25
2023-02-17T19:58:47.724Z,98048.69
2023-02-17T20:01:19.002Z,98014.94
2023-02-17T20:03:47.664Z,98026.22
2023-02-17T20:06:19.312Z,98048.78
2023-02-17T20:08:48.315Z,98043.50
2023-02-17T20:11:16.630Z,98043.44
2023-02-17T20:13:46.432Z,98021.81
2023-02-17T20:16:16.820Z,98054.91
2023-02-17T20:18:47.378Z,98052.47
2023-02-17T20:21:17.445Z,98030.94
2023-02-17T20:23:47.514Z,98011.94
2023-02-17T20:26:18.735Z,98029.31
2023-02-17T20:28:47.706Z,97961.88
2023-02-17T20:31:16.466Z,98059.59
2023-02-17T20:33:46.051Z,97960.19
2023-02-17T20:36:14.233Z,98060.31
2023-02-17T20:38:42.951Z,98052.53
2023-02-17T20:41:19.238Z,98037.84
2023-02-17T20:43:47.702Z,98039.66
2023-02-17T20:46:25.099Z,98054.31
2023-02-17T20:48:53.883Z,98043.06
2023-02-17T20:51:21.989Z,98037.00
2023-02-17T20:53:50.235Z,98040.50
2023-02-17T20:56:23.018Z,98026.66
2023-02-17T20:58:52.255Z,98032.81
2023-02-17T21:01:20.530Z,98009.44
2023-02-17T21:03:49.392Z,98019.81
2023-02-17T21:06:22.674Z,98021.66
2023-02-17T21:08:52.811Z,98032.13
2023-02-17T21:11:22.505Z,98002.69
2023-02-17T21:13:51.020Z,97991.59
2023-02-17T21:16:22.112Z,97989.75
2023-02-17T21:18:50.553Z,98015.69
2023-02-17T21:21:18.979Z,98007.81
2023-02-17T21:23:48.992Z,98011.22
2023-02-17T21:26:18.002Z,98013.88
2023-02-17T21:28:48.609Z,97983.59
2023-02-17T21:31:18.888Z,97993.00
2023-02-17T21:33:47.249Z,98005.06
2023-02-17T21:36:17.933Z,98009.59
2023-02-17T21:38:47.333Z,97919.94
2023-02-17T21:41:17.902Z,98012.47
2023-02-17T21:44:05.397Z,98022.94
2023-02-17T21:46:35.475Z,98032.50
2023-02-17T21:49:03.985Z,98028.09
2023-02-17T21:51:32.252Z,98032.44
2023-02-17T21:54:00.637Z,98035.19
2023-02-17T21:56:28.790Z,98010.84
2023-02-17T21:58:58.723Z,98014.31
2023-02-17T22:01:28.586Z,98030.75
2023-02-17T22:03:57.929Z,98021.13
2023-02-17T22:06:28.923Z,98028.13
2023-02-17T22:08:58.084Z,98022.97
2023-02-17T22:11:29.872Z,98029.91
2023-02-17T22:14:01.379Z,98027.31
2023-02-17T22:16:30.892Z,98012.53
2023-02-17T22:18:59.202Z,98009.06
2023-02-17T22:21:27.577Z,97997.78
2023-02-17T22:23:56.135Z,97980.47
2023-02-17T22:26:26.763Z,97985.56
2023-02-17T22:28:56.314Z,97992.50
2023-02-17T22:31:27.940Z,97985.56
2023-02-17T22:33:58.018Z,97986.47
2023-02-17T22:36:27.552Z,97989.94
2023-02-17T22:38:56.211Z,97945.88
2023-02-17T22:41:26.554Z,97949.31
2023-02-17T22:43:55.374Z,98000.47
2023-02-17T22:46:27.382Z,98002.25
2023-02-17T22:48:57.402Z,97989.31
2023-02-17T22:51:27.491Z,97985.88
2023-02-17T22:53:55.867Z,98007.47
2023-02-17T22:56:24.835Z,98015.31
2023-02-17T22:58:56.589Z,98004.09
2023-02-17T23:01:26.553Z,97956.56
2023-02-17T23:03:55.171Z,98004.09
2023-02-17T23:06:25.646Z,98008.47
2023-02-17T23:08:55.187Z,98003.28
2023-02-17T23:11:39.065Z,98013.69
2023-02-17T23:14:07.681Z,97988.59
2023-02-17T23:16:37.738Z,97944.50
2023-02-17T23:19:07.922Z,97992.88
2023-02-17T23:21:36.932Z,97993.69
2023-02-17T23:24:05.902Z,98004.16
2023-02-17T23:26:34.265Z,98005.97
2023-02-17T23:29:02.334Z,98004.19
2023-02-17T23:31:30.570Z,98012.06
2023-02-17T23:34:00.362Z,98006.81
2023-02-17T23:36:28.515Z,98094.50
2023-02-17T23:38:56.880Z,98032.88
2023-02-17T23:41:25.062Z,98039.84
2023-02-17T23:43:53.222Z,98029.47
2023-02-17T23:46:21.678Z,98021.66
2023-02-17T23:48:50.030Z,98018.22
2023-02-17T23:51:21.242Z,97987.91
2023-02-17T23:53:49.619Z,98019.91
2023-02-17T23:56:21.824Z,98002.63
2023-02-17T23:58:50.063Z,98010.34
